Terminal Aerodrome Forecast
Issued by NWS North Platte, NE

Home | Current Version | Previous Version | Text Only | Print | Product List | Glossary Off
Versions: 1 2 3 4 5 6 7 8 9 10 11 12 13 14 15 16 17 18

000
FTUS43 KLBF 230500
TAFVTN
TAF
KVTN 230520Z 2306/2406 12007KT P6SM SKC
     FM231500 17010KT P6SM SCT100
     FM231700 17012G24KT P6SM SCT100
     FM232000 17014G26KT P6SM BKN050
     FM240000 18014G23KT P6SM BKN025 PROB30 2400/2406 5SM -TSRA
      BKN020CB=

USA.gov is the U.S. government's official web portal to all federal, state and local government web resources and services.